Time;durP1;ratioP1;P1;durP2;ratioP2;P2;SDS_P1;SDS_P2;PMS_P1;PMS_P2;Temp;Humidity;BMP_temperature;BMP_pressure;BME280_temperature;BME280_humidity;BME280_pressure;Samples;Min_cycle;Max_cycle;Signal;HPM_P1;HPM_P2
2022/08/05 00:01:14;;;;;;;;;;;17.10;99.90;;;;;;5106916;27;19920;-56
2022/08/05 00:03:55;;;;;;;;;;;17.10;99.90;;;;;;5127283;27;19918;-55
2022/08/05 00:06:35;;;;;;;;;;;17.00;99.90;;;;;;5126597;27;20393;-56
2022/08/05 00:09:15;;;;;;;;;;;17.00;99.90;;;;;;5094978;27;19913;-56
2022/08/05 00:11:55;;;;;;;;;;;17.00;99.90;;;;;;5127133;27;19918;-56
2022/08/05 00:14:34;;;;;;;;;;;17.00;99.90;;;;;;5126749;27;19912;-57
2022/08/05 00:17:14;;;;;;;;;;;17.00;99.90;;;;;;5126542;27;19918;-56
2022/08/05 00:19:54;;;;;;;;;;;17.00;99.90;;;;;;5106023;27;20319;-55
2022/08/05 00:22:35;;;;;;;;;;;16.90;99.90;;;;;;5127077;27;19911;-55
2022/08/05 00:25:15;;;;;;;;;;;16.90;99.90;;;;;;5127373;27;19911;-56
2022/08/05 00:27:55;;;;;;;;;;;16.90;99.90;;;;;;5126844;27;19945;-56
2022/08/05 00:30:35;;;;;;;;;;;16.90;99.90;;;;;;5126615;27;20377;-57
2022/08/05 00:33:15;;;;;;;;;;;16.80;99.90;;;;;;5126983;27;19912;-56
2022/08/05 00:35:56;;;;;;;;;;;16.70;99.90;;;;;;5126821;27;19912;-55
2022/08/05 00:38:39;;;;;;;;;;;16.70;99.90;;;;;;5120061;27;19916;-56
2022/08/05 00:41:28;;;;;;;;;;;16.70;99.90;;;;;;5121308;27;19923;-55
2022/08/05 00:44:08;;;;;;;;;;;16.60;99.90;;;;;;5129196;27;19918;-56
2022/08/05 00:46:48;;;;;;;;;;;16.60;99.90;;;;;;5125325;27;19922;-56
2022/08/05 00:49:28;;;;;;;;;;;16.50;99.90;;;;;;5113183;27;19912;-57
2022/08/05 00:52:08;;;;;;;;;;;16.50;99.90;;;;;;5126998;27;19912;-56
2022/08/05 00:54:48;;;;;;;;;;;16.50;99.90;;;;;;5127326;27;20361;-57
2022/08/05 00:57:28;;;;;;;;;;;16.50;99.90;;;;;;5126670;27;19912;-57
2022/08/05 01:00:09;;;;;;;;;;;16.40;99.90;;;;;;5127166;27;19911;-56
2022/08/05 01:02:49;;;;;;;;;;;16.40;99.90;;;;;;5127147;27;20285;-56
2022/08/05 01:05:29;;;;;;;;;;;16.40;99.90;;;;;;5126830;27;20399;-56
2022/08/05 01:08:09;;;;;;;;;;;16.40;99.90;;;;;;5124582;27;19916;-57
2022/08/05 01:10:51;;;;;;;;;;;16.40;99.90;;;;;;5106592;27;19916;-57
2022/08/05 01:13:36;;;;;;;;;;;16.30;99.90;;;;;;5127475;27;19918;-56
2022/08/05 01:16:21;;;;;;;;;;;16.20;99.90;;;;;;5081843;27;19942;-54
2022/08/05 01:19:06;;;;;;;;;;;16.20;99.90;;;;;;5117243;27;20316;-56
2022/08/05 01:22:05;;;;;;;;;;;16.20;99.90;;;;;;5127226;27;19912;-56
2022/08/05 01:24:55;;;;;;;;;;;16.20;99.90;;;;;;5127111;27;19916;-56
2022/08/05 01:27:55;;;;;;;;;;;16.20;99.90;;;;;;5106210;27;20320;-55
2022/08/05 01:30:36;;;;;;;;;;;16.20;99.90;;;;;;5126726;27;19912;-56
2022/08/05 01:33:17;;;;;;;;;;;16.10;99.90;;;;;;5126981;27;20369;-56
2022/08/05 01:35:58;;;;;;;;;;;16.10;99.90;;;;;;5126851;27;19912;-57
2022/08/05 01:38:39;;;;;;;;;;;16.10;99.90;;;;;;5120286;27;19918;-56
2022/08/05 01:41:22;;;;;;;;;;;16.10;99.90;;;;;;5127001;27;19985;-57
2022/08/05 01:44:05;;;;;;;;;;;16.10;99.90;;;;;;5126782;27;19912;-56
2022/08/05 01:46:46;;;;;;;;;;;16.00;99.90;;;;;;5126816;27;19911;-57
2022/08/05 01:49:27;;;;;;;;;;;16.00;99.90;;;;;;5113182;27;19912;-57
2022/08/05 01:52:08;;;;;;;;;;;15.90;99.90;;;;;;5127176;27;19912;-55
2022/08/05 01:54:51;;;;;;;;;;;15.90;99.90;;;;;;5126527;27;19918;-57
2022/08/05 01:57:31;;;;;;;;;;;15.90;99.90;;;;;;5126456;27;19919;-57
2022/08/05 02:00:12;;;;;;;;;;;15.90;99.90;;;;;;5106562;27;20281;-57
2022/08/05 02:02:55;;;;;;;;;;;15.90;99.90;;;;;;5127315;27;19915;-56
2022/08/05 02:05:36;;;;;;;;;;;15.80;99.90;;;;;;5105996;27;19926;-57
2022/08/05 02:08:16;;;;;;;;;;;15.80;99.90;;;;;;5106340;27;19912;-57
2022/08/05 02:10:59;;;;;;;;;;;15.70;99.90;;;;;;5126696;27;19941;-57
2022/08/05 02:13:41;;;;;;;;;;;15.70;99.90;;;;;;5126383;27;19993;-57
2022/08/05 02:16:21;;;;;;;;;;;15.70;99.90;;;;;;5126563;27;19918;-57
2022/08/05 02:19:06;;;;;;;;;;;15.70;99.90;;;;;;5096688;27;20316;-56
2022/08/05 02:21:49;;;;;;;;;;;15.70;99.90;;;;;;5126629;27;19919;-57
2022/08/05 02:24:32;;;;;;;;;;;15.70;99.90;;;;;;5126876;27;20543;-57
2022/08/05 02:27:12;;;;;;;;;;;15.60;99.90;;;;;;5106226;27;19912;-56
2022/08/05 02:29:53;;;;;;;;;;;15.50;99.90;;;;;;5127072;27;19973;-56
2022/08/05 02:32:34;;;;;;;;;;;15.60;99.90;;;;;;5106419;27;19922;-57
2022/08/05 02:35:15;;;;;;;;;;;15.50;99.90;;;;;;5126715;27;19996;-57
2022/08/05 02:37:56;;;;;;;;;;;15.50;99.90;;;;;;5126314;27;19925;-57
2022/08/05 02:40:37;;;;;;;;;;;15.50;99.90;;;;;;5105390;27;19912;-57
2022/08/05 02:43:18;;;;;;;;;;;15.50;99.90;;;;;;5126922;27;19919;-57
2022/08/05 02:46:00;;;;;;;;;;;15.40;99.90;;;;;;5126985;27;19918;-57
2022/08/05 02:48:39;;;;;;;;;;;15.40;99.90;;;;;;5126447;27;19920;-56
2022/08/05 02:51:19;;;;;;;;;;;15.40;99.90;;;;;;5106282;27;19912;-57
2022/08/05 02:54:00;;;;;;;;;;;15.40;99.90;;;;;;5126960;27;19946;-57
2022/08/05 02:56:41;;;;;;;;;;;15.40;99.90;;;;;;5106062;27;19934;-57
2022/08/05 02:59:25;;;;;;;;;;;15.50;99.90;;;;;;5114431;27;19918;-56
2022/08/05 03:02:19;;;;;;;;;;;15.40;99.90;;;;;;5127164;27;19926;-56
2022/08/05 03:05:00;;;;;;;;;;;15.40;99.90;;;;;;5126964;27;19925;-56
2022/08/05 03:07:42;;;;;;;;;;;15.30;99.90;;;;;;5126539;27;20284;-55
2022/08/05 03:10:24;;;;;;;;;;;15.40;99.90;;;;;;5105911;27;19918;-56
2022/08/05 03:13:10;;;;;;;;;;;15.40;99.90;;;;;;5106513;27;19919;-57
2022/08/05 03:15:50;;;;;;;;;;;15.30;99.90;;;;;;5124462;27;20305;-57
2022/08/05 03:18:30;;;;;;;;;;;15.30;99.90;;;;;;5121255;27;20292;-57
2022/08/05 03:21:10;;;;;;;;;;;15.30;99.90;;;;;;5106344;27;19926;-57
2022/08/05 03:23:50;;;;;;;;;;;15.30;99.90;;;;;;5127155;27;19918;-56
2022/08/05 03:26:29;;;;;;;;;;;15.30;99.90;;;;;;5126341;27;19949;-56
2022/08/05 03:29:09;;;;;;;;;;;15.30;99.90;;;;;;5127786;27;19918;-56
2022/08/05 03:31:49;;;;;;;;;;;15.30;99.90;;;;;;5127067;27;20285;-56
2022/08/05 03:34:29;;;;;;;;;;;15.30;99.90;;;;;;5126529;27;20395;-57
2022/08/05 03:37:09;;;;;;;;;;;15.30;99.90;;;;;;5126797;27;19912;-57
2022/08/05 03:39:56;;;;;;;;;;;15.20;99.90;;;;;;5126250;27;19926;-56
2022/08/05 03:42:36;;;;;;;;;;;15.10;99.90;;;;;;5126544;27;19926;-56
2022/08/05 03:45:16;;;;;;;;;;;15.20;99.90;;;;;;5126827;27;19952;-57
2022/08/05 03:47:56;;;;;;;;;;;15.20;99.90;;;;;;5085485;28;20452;-56
2022/08/05 03:50:41;;;;;;;;;;;15.30;99.90;;;;;;5126950;27;19912;-56
2022/08/05 03:53:24;;;;;;;;;;;15.30;99.90;;;;;;5122169;27;19965;-56
2022/08/05 03:56:06;;;;;;;;;;;15.40;99.90;;;;;;5124197;27;19926;-57
2022/08/05 03:58:48;;;;;;;;;;;15.40;99.90;;;;;;5118010;27;19915;-57
2022/08/05 04:01:28;;;;;;;;;;;15.40;99.90;;;;;;5125142;27;19912;-57
2022/08/05 04:04:10;;;;;;;;;;;15.50;99.90;;;;;;5126124;27;19945;-57
2022/08/05 04:06:51;;;;;;;;;;;15.50;99.90;;;;;;5125806;27;19912;-56
2022/08/05 04:09:31;;;;;;;;;;;15.60;99.90;;;;;;5111774;27;19919;-57
2022/08/05 04:12:12;;;;;;;;;;;15.70;99.90;;;;;;5125319;27;20530;-56
2022/08/05 04:14:52;;;;;;;;;;;15.80;99.90;;;;;;5125419;27;19930;-57
2022/08/05 04:17:33;;;;;;;;;;;15.90;99.90;;;;;;5104186;27;19962;-56
2022/08/05 04:20:19;;;;;;;;;;;16.10;99.90;;;;;;5105250;27;20329;-57
2022/08/05 04:22:59;;;;;;;;;;;16.30;99.90;;;;;;5125832;27;19945;-56
2022/08/05 04:25:39;;;;;;;;;;;16.40;99.90;;;;;;5104990;27;20442;-55
2022/08/05 04:28:19;;;;;;;;;;;16.50;99.90;;;;;;5122438;27;20131;-57
2022/08/05 04:30:59;;;;;;;;;;;16.60;99.90;;;;;;5125812;27;19912;-56
2022/08/05 04:33:38;;;;;;;;;;;16.90;99.90;;;;;;5105066;27;19918;-56
2022/08/05 04:36:18;;;;;;;;;;;17.10;99.90;;;;;;5125899;27;19918;-57
2022/08/05 04:38:58;;;;;;;;;;;17.40;99.90;;;;;;5116799;27;19912;-57
2022/08/05 04:41:38;;;;;;;;;;;17.50;99.90;;;;;;5125824;27;20392;-55
2022/08/05 04:44:18;;;;;;;;;;;17.70;99.90;;;;;;5125776;27;20195;-56
2022/08/05 04:46:58;;;;;;;;;;;17.90;99.90;;;;;;5126866;27;19919;-57
2022/08/05 04:49:37;;;;;;;;;;;18.00;99.90;;;;;;5125233;27;19916;-57
2022/08/05 04:52:17;;;;;;;;;;;18.10;99.90;;;;;;5126883;27;19953;-56
2022/08/05 04:54:57;;;;;;;;;;;18.30;99.90;;;;;;5127240;27;19957;-56
2022/08/05 04:57:37;;;;;;;;;;;18.40;99.90;;;;;;5106046;27;19927;-55
2022/08/05 05:00:17;;;;;;;;;;;18.50;99.90;;;;;;5126793;27;19918;-56
2022/08/05 05:02:57;;;;;;;;;;;18.40;99.90;;;;;;5126495;27;19912;-56
2022/08/05 05:05:37;;;;;;;;;;;18.40;99.90;;;;;;5126833;27;19918;-56
2022/08/05 05:08:16;;;;;;;;;;;18.40;99.90;;;;;;5123607;27;19920;-57
2022/08/05 05:10:56;;;;;;;;;;;18.40;99.90;;;;;;5106249;27;19926;-57
2022/08/05 05:13:36;;;;;;;;;;;18.50;99.90;;;;;;5119713;27;19929;-57
2022/08/05 05:16:16;;;;;;;;;;;18.50;99.90;;;;;;5124875;27;19918;-56
2022/08/05 05:18:56;;;;;;;;;;;18.60;99.90;;;;;;5125463;27;19933;-57
2022/08/05 05:21:35;;;;;;;;;;;18.80;99.90;;;;;;5125650;27;19919;-57
2022/08/05 05:24:15;;;;;;;;;;;19.00;99.90;;;;;;5105122;27;19939;-56
2022/08/05 05:26:55;;;;;;;;;;;19.40;99.90;;;;;;5125698;27;20438;-56
2022/08/05 05:29:35;;;;;;;;;;;19.80;99.90;;;;;;5111274;27;19938;-56
2022/08/05 05:32:15;;;;;;;;;;;20.30;99.90;;;;;;5125922;27;19912;-56
2022/08/05 05:34:54;;;;;;;;;;;20.60;99.90;;;;;;5125930;27;20115;-57
2022/08/05 05:37:34;;;;;;;;;;;20.70;99.90;;;;;;5125194;27;19934;-57
2022/08/05 05:40:15;;;;;;;;;;;20.90;99.90;;;;;;5103741;27;19912;-56
2022/08/05 05:42:56;;;;;;;;;;;21.10;99.90;;;;;;5125672;27;20141;-56
2022/08/05 05:45:35;;;;;;;;;;;21.30;99.90;;;;;;5105662;27;20447;-56
2022/08/05 05:48:15;;;;;;;;;;;21.60;99.90;;;;;;5101922;27;20350;-56
2022/08/05 05:50:55;;;;;;;;;;;21.60;99.90;;;;;;5125594;27;19918;-56
2022/08/05 05:53:35;;;;;;;;;;;21.60;99.90;;;;;;5104912;27;19949;-57
2022/08/05 05:56:15;;;;;;;;;;;21.40;99.90;;;;;;5125540;27;19918;-56
2022/08/05 05:58:54;;;;;;;;;;;21.40;99.90;;;;;;5126048;27;19912;-56
2022/08/05 06:01:35;;;;;;;;;;;21.30;99.90;;;;;;5125926;27;20258;-56
2022/08/05 06:04:16;;;;;;;;;;;21.30;99.90;;;;;;5126791;27;19915;-57
2022/08/05 06:06:56;;;;;;;;;;;21.40;99.90;;;;;;5126349;27;19912;-56
2022/08/05 06:09:35;;;;;;;;;;;21.40;99.90;;;;;;5126032;27;20316;-56
2022/08/05 06:12:15;;;;;;;;;;;21.30;99.90;;;;;;5122677;27;20304;-56
2022/08/05 06:14:55;;;;;;;;;;;21.20;99.90;;;;;;5125764;27;19918;-56
2022/08/05 06:17:35;;;;;;;;;;;21.20;99.90;;;;;;5125124;27;19918;-57
2022/08/05 06:20:15;;;;;;;;;;;21.30;99.90;;;;;;5126815;27;19918;-57
2022/08/05 06:22:55;;;;;;;;;;;21.50;99.90;;;;;;5126658;27;19911;-55
2022/08/05 06:25:34;;;;;;;;;;;21.90;99.90;;;;;;5126842;27;20266;-57
2022/08/05 06:28:14;;;;;;;;;;;22.20;99.90;;;;;;5147667;27;19918;-54
2022/08/05 06:30:54;;;;;;;;;;;22.50;99.90;;;;;;5103999;27;19926;-56
2022/08/05 06:33:34;;;;;;;;;;;22.60;99.90;;;;;;5105970;27;19927;-56
2022/08/05 06:36:14;;;;;;;;;;;22.70;99.90;;;;;;5126979;27;19911;-57
2022/08/05 06:38:54;;;;;;;;;;;22.80;99.90;;;;;;5126890;27;20581;-57
2022/08/05 06:41:33;;;;;;;;;;;23.00;99.90;;;;;;5107912;27;20428;-56
2022/08/05 06:44:13;;;;;;;;;;;23.40;99.90;;;;;;5126646;27;19926;-56
2022/08/05 06:46:53;;;;;;;;;;;23.70;99.90;;;;;;5105793;27;19953;-56
2022/08/05 06:49:33;;;;;;;;;;;23.90;99.90;;;;;;5112595;27;19912;-58
2022/08/05 06:52:13;;;;;;;;;;;24.20;99.90;;;;;;5126694;27;19911;-55
2022/08/05 06:54:53;;;;;;;;;;;24.50;99.90;;;;;;5106114;27;20423;-56
2022/08/05 06:57:32;;;;;;;;;;;24.90;99.90;;;;;;5100136;27;19930;-55
2022/08/05 07:00:13;;;;;;;;;;;25.10;99.90;;;;;;5126154;27;19911;-55
2022/08/05 07:02:54;;;;;;;;;;;25.40;99.90;;;;;;5103559;27;20582;-55
2022/08/05 07:05:33;;;;;;;;;;;25.50;99.90;;;;;;5105656;27;19926;-55
2022/08/05 07:08:13;;;;;;;;;;;25.60;99.90;;;;;;5123294;27;19930;-56
2022/08/05 07:10:53;;;;;;;;;;;26.00;99.90;;;;;;5130106;27;19918;-57
2022/08/05 07:16:50;;;;;;;;;;;27.40;92.00;;;;;;5106045;27;19912;-56
2022/08/05 07:19:31;;;;;;;;;;;28.40;81.10;;;;;;5112982;27;19935;-55
2022/08/05 07:22:11;;;;;;;;;;;29.00;71.80;;;;;;5126863;27;19912;-54
2022/08/05 07:24:51;;;;;;;;;;;28.90;67.50;;;;;;5106065;27;19926;-56
2022/08/05 07:27:31;;;;;;;;;;;28.90;64.50;;;;;;5125630;27;19911;-56
2022/08/05 07:30:12;;;;;;;;;;;29.20;64.30;;;;;;5098970;27;19916;-56
2022/08/05 07:32:53;;;;;;;;;;;29.20;62.50;;;;;;5126328;27;19949;-55
2022/08/05 07:35:33;;;;;;;;;;;28.40;62.00;;;;;;5106324;27;19918;-55
2022/08/05 07:38:13;;;;;;;;;;;28.00;64.10;;;;;;5123993;27;20328;-55
2022/08/05 07:40:53;;;;;;;;;;;27.70;65.00;;;;;;5126697;27;20560;-56
2022/08/05 07:43:33;;;;;;;;;;;27.60;65.60;;;;;;5126684;27;19920;-57
2022/08/05 07:46:13;;;;;;;;;;;27.70;65.40;;;;;;5126526;27;19918;-56
2022/08/05 07:48:52;;;;;;;;;;;27.90;65.90;;;;;;5118611;27;19946;-57
2022/08/05 07:51:33;;;;;;;;;;;28.10;65.70;;;;;;5127230;27;19918;-57
2022/08/05 07:54:14;;;;;;;;;;;28.40;64.90;;;;;;5118205;27;19920;-55
2022/08/05 07:56:54;;;;;;;;;;;28.60;63.80;;;;;;5129772;27;19911;-56
2022/08/05 07:59:33;;;;;;;;;;;28.80;61.00;;;;;;5099974;27;20483;-56
2022/08/05 08:02:13;;;;;;;;;;;28.90;61.20;;;;;;5104309;27;19916;-56
2022/08/05 08:04:53;;;;;;;;;;;29.00;61.30;;;;;;5100623;27;19927;-56
2022/08/05 08:07:33;;;;;;;;;;;29.00;60.40;;;;;;5100434;27;19913;-56
2022/08/05 08:10:14;;;;;;;;;;;28.90;60.60;;;;;;5123225;27;19977;-56
2022/08/05 08:12:54;;;;;;;;;;;28.70;62.60;;;;;;5125876;27;20335;-56
2022/08/05 08:15:34;;;;;;;;;;;28.50;62.60;;;;;;5123073;27;19960;-56
2022/08/05 08:18:14;;;;;;;;;;;28.60;61.70;;;;;;5103070;27;19950;-56
2022/08/05 08:20:53;;;;;;;;;;;28.70;61.20;;;;;;5124887;27;20198;-56
2022/08/05 08:23:34;;;;;;;;;;;28.80;60.40;;;;;;5121774;27;19912;-56
2022/08/05 08:26:15;;;;;;;;;;;29.00;60.00;;;;;;5123884;27;19916;-56
2022/08/05 08:28:55;;;;;;;;;;;29.10;59.60;;;;;;5118962;27;19925;-57
2022/08/05 08:31:34;;;;;;;;;;;29.30;58.00;;;;;;5112992;27;19919;-56
2022/08/05 08:34:14;;;;;;;;;;;29.70;56.50;;;;;;5113568;27;19934;-57
2022/08/05 08:36:54;;;;;;;;;;;29.70;56.20;;;;;;5138999;27;20315;-56
2022/08/05 08:39:36;;;;;;;;;;;29.60;57.60;;;;;;5114224;27;19922;-56
2022/08/05 08:42:16;;;;;;;;;;;29.50;56.10;;;;;;5125477;27;19912;-56
2022/08/05 08:44:58;;;;;;;;;;;29.20;55.60;;;;;;5126570;27;19918;-56
2022/08/05 08:47:38;;;;;;;;;;;29.00;56.30;;;;;;5125634;27;19961;-56
2022/08/05 08:50:19;;;;;;;;;;;28.70;57.30;;;;;;5126945;27;20417;-56
2022/08/05 08:53:00;;;;;;;;;;;28.90;57.10;;;;;;5106532;27;19915;-56
2022/08/05 08:55:41;;;;;;;;;;;29.10;57.40;;;;;;5106254;27;19919;-56
2022/08/05 08:58:21;;;;;;;;;;;29.40;55.90;;;;;;5123146;27;19918;-56
2022/08/05 09:01:00;;;;;;;;;;;29.60;54.60;;;;;;5126810;27;19918;-57
2022/08/05 09:03:41;;;;;;;;;;;29.80;55.10;;;;;;5126869;27;20339;-56
2022/08/05 09:06:22;;;;;;;;;;;30.00;53.40;;;;;;5126142;27;19911;-56
2022/08/05 09:09:02;;;;;;;;;;;30.10;52.80;;;;;;5094376;27;19950;-56
2022/08/05 09:11:42;;;;;;;;;;;30.30;52.50;;;;;;5119214;27;19922;-55
2022/08/05 09:14:23;;;;;;;;;;;30.40;52.90;;;;;;5125721;27;19912;-56
2022/08/05 09:17:04;;;;;;;;;;;30.50;51.50;;;;;;5125382;27;19926;-56
2022/08/05 09:19:44;;;;;;;;;;;30.60;51.30;;;;;;5109924;27;19961;-56
2022/08/05 09:22:24;;;;;;;;;;;30.50;51.00;;;;;;5105735;27;19916;-56
2022/08/05 09:25:04;;;;;;;;;;;30.50;50.90;;;;;;5126790;27;19925;-56
2022/08/05 09:27:44;;;;;;;;;;;30.60;50.50;;;;;;5126809;27;19926;-56
2022/08/05 09:30:24;;;;;;;;;;;30.70;49.80;;;;;;5107111;27;19953;-56
2022/08/05 09:33:05;;;;;;;;;;;30.80;49.40;;;;;;5127272;27;19918;-56
2022/08/05 09:35:53;;;;;;;;;;;31.00;48.70;;;;;;5126854;27;19925;-63
2022/08/05 09:38:34;;;;;;;;;;;31.30;48.60;;;;;;5127268;27;19920;-55
2022/08/05 09:41:14;;;;;;;;;;;31.70;47.60;;;;;;5106555;27;19926;-56
2022/08/05 09:43:54;;;;;;;;;;;32.20;46.90;;;;;;5106135;27;19912;-56
2022/08/05 09:46:34;;;;;;;;;;;32.30;46.10;;;;;;5126429;27;19912;-60
2022/08/05 09:49:24;;;;;;;;;;;32.40;45.80;;;;;;5101677;27;19946;-59
2022/08/05 09:52:17;;;;;;;;;;;32.00;44.50;;;;;;5114717;27;19927;-55
2022/08/05 09:54:58;;;;;;;;;;;31.40;44.90;;;;;;5123591;27;19918;-58
2022/08/05 09:57:39;;;;;;;;;;;31.00;46.20;;;;;;5122202;27;20331;-56
2022/08/05 10:00:23;;;;;;;;;;;30.90;47.50;;;;;;5118363;27;19916;-59
2022/08/05 10:03:08;;;;;;;;;;;30.70;46.60;;;;;;5098866;27;19946;-56
2022/08/05 10:05:59;;;;;;;;;;;30.60;46.90;;;;;;5131083;27;19961;-57
2022/08/05 10:08:40;;;;;;;;;;;30.60;46.90;;;;;;5116730;27;19938;-55
2022/08/05 10:11:20;;;;;;;;;;;30.60;47.00;;;;;;5124525;27;20411;-56
2022/08/05 10:14:20;;;;;;;;;;;30.90;45.60;;;;;;5117745;27;20202;-56
2022/08/05 10:17:11;;;;;;;;;;;30.60;46.20;;;;;;5111342;27;19924;-57
2022/08/05 10:19:51;;;;;;;;;;;30.60;45.90;;;;;;5092616;27;20404;-58
2022/08/05 10:22:32;;;;;;;;;;;30.50;46.40;;;;;;5113106;27;19935;-58
2022/08/05 10:25:11;;;;;;;;;;;30.60;46.00;;;;;;5115777;27;19961;-61
2022/08/05 10:27:52;;;;;;;;;;;30.80;46.00;;;;;;5108492;27;19912;-55
2022/08/05 10:30:32;;;;;;;;;;;31.00;45.90;;;;;;5095535;27;20119;-57
2022/08/05 10:33:12;;;;;;;;;;;31.00;43.80;;;;;;5116352;27;19926;-58
2022/08/05 10:35:53;;;;;;;;;;;30.90;42.00;;;;;;5117282;27;19922;-60
2022/08/05 10:38:34;;;;;;;;;;;30.90;43.80;;;;;;5113520;27;20357;-56
2022/08/05 10:41:17;;;;;;;;;;;31.10;45.90;;;;;;5103008;27;19953;-54
2022/08/05 10:44:00;;;;;;;;;;;31.20;44.20;;;;;;5115036;27;19911;-59
2022/08/05 10:46:45;;;;;;;;;;;31.20;43.30;;;;;;5088293;27;20291;-56
2022/08/05 10:49:28;;;;;;;;;;;31.30;43.20;;;;;;5118904;27;19918;-57
2022/08/05 10:52:09;;;;;;;;;;;31.70;43.40;;;;;;5126164;27;19918;-59
2022/08/05 10:55:01;;;;;;;;;;;32.40;42.40;;;;;;5109691;27;19930;-57
2022/08/05 10:57:42;;;;;;;;;;;32.60;40.40;;;;;;5110229;27;20395;-57
2022/08/05 11:00:29;;;;;;;;;;;32.50;40.60;;;;;;5140652;27;19918;-60
2022/08/05 11:03:13;;;;;;;;;;;32.50;40.70;;;;;;5124529;27;19911;-59
2022/08/05 11:06:07;;;;;;;;;;;32.40;40.50;;;;;;5126728;27;19918;-58
2022/08/05 11:09:05;;;;;;;;;;;32.30;41.60;;;;;;5118896;27;20415;-55
2022/08/05 11:11:46;;;;;;;;;;;32.40;40.70;;;;;;5113337;27;19911;-59
2022/08/05 11:14:27;;;;;;;;;;;32.40;40.40;;;;;;5095535;27;19931;-59
2022/08/05 11:17:31;;;;;;;;;;;32.40;41.10;;;;;;5101611;27;19946;-55
2022/08/05 11:20:31;;;;;;;;;;;32.70;39.40;;;;;;5108380;27;20015;-55
2022/08/05 11:23:27;;;;;;;;;;;33.10;38.90;;;;;;5104386;27;20415;-55
2022/08/05 11:26:09;;;;;;;;;;;33.30;37.30;;;;;;5137320;27;19915;-55
2022/08/05 11:28:50;;;;;;;;;;;33.30;37.60;;;;;;5119015;27;19916;-61
2022/08/05 11:31:32;;;;;;;;;;;33.40;37.50;;;;;;5127407;27;19912;-56
2022/08/05 11:34:12;;;;;;;;;;;33.40;37.60;;;;;;5127742;27;20323;-54
2022/08/05 11:36:52;;;;;;;;;;;33.50;37.80;;;;;;5126858;27;19912;-56
2022/08/05 11:39:51;;;;;;;;;;;33.40;37.30;;;;;;5092586;27;19926;-58
2022/08/05 11:42:31;;;;;;;;;;;33.40;38.20;;;;;;5106997;27;20324;-56
2022/08/05 11:45:11;;;;;;;;;;;33.30;38.30;;;;;;5127863;27;19912;-55
2022/08/05 11:47:53;;;;;;;;;;;33.20;38.50;;;;;;5114769;27;20332;-56
2022/08/05 11:50:40;;;;;;;;;;;33.10;37.80;;;;;;5126569;27;19915;-58
2022/08/05 11:53:20;;;;;;;;;;;33.30;38.70;;;;;;5106711;27;20422;-55
2022/08/05 11:56:01;;;;;;;;;;;34.00;37.60;;;;;;5126590;27;20422;-56
2022/08/05 11:58:42;;;;;;;;;;;34.40;36.40;;;;;;5154864;27;19915;-57
2022/08/05 12:01:23;;;;;;;;;;;34.20;36.30;;;;;;5122243;27;19918;-58
2022/08/05 12:04:04;;;;;;;;;;;34.50;35.40;;;;;;5084691;27;19954;-56
2022/08/05 12:06:44;;;;;;;;;;;34.90;34.50;;;;;;5120413;27;19912;-58
2022/08/05 12:09:26;;;;;;;;;;;34.90;35.30;;;;;;5115422;27;20373;-57
2022/08/05 12:12:08;;;;;;;;;;;35.10;34.10;;;;;;5116611;27;20369;-59
2022/08/05 12:14:48;;;;;;;;;;;34.90;34.20;;;;;;5119940;27;19911;-57
2022/08/05 12:17:35;;;;;;;;;;;34.80;33.60;;;;;;5122674;27;19916;-60
2022/08/05 12:20:14;;;;;;;;;;;34.70;33.80;;;;;;5114022;27;19916;-59
2022/08/05 12:23:07;;;;;;;;;;;34.90;33.40;;;;;;5083598;27;19958;-58
2022/08/05 12:25:50;;;;;;;;;;;34.50;32.50;;;;;;5102723;27;19977;-59
2022/08/05 12:28:34;;;;;;;;;;;34.20;33.20;;;;;;5120148;27;19913;-58
2022/08/05 12:31:15;;;;;;;;;;;33.90;33.10;;;;;;5126400;27;20316;-55
2022/08/05 12:33:57;;;;;;;;;;;33.40;34.40;;;;;;5126111;27;19911;-57
2022/08/05 12:36:37;;;;;;;;;;;33.00;35.60;;;;;;5115514;27;20381;-58
2022/08/05 12:39:17;;;;;;;;;;;32.90;35.70;;;;;;5126288;27;19922;-56
2022/08/05 12:41:59;;;;;;;;;;;33.00;35.80;;;;;;5126903;27;19953;-57
2022/08/05 12:44:38;;;;;;;;;;;32.90;36.60;;;;;;5106759;27;19926;-56
2022/08/05 12:47:28;;;;;;;;;;;32.70;35.30;;;;;;5126655;27;19912;-58
2022/08/05 12:50:14;;;;;;;;;;;32.50;35.00;;;;;;5126299;27;20428;-55
2022/08/05 12:52:58;;;;;;;;;;;32.40;35.80;;;;;;5125492;27;19918;-56
2022/08/05 12:55:40;;;;;;;;;;;32.30;36.40;;;;;;5106232;27;19919;-56
2022/08/05 12:58:24;;;;;;;;;;;32.30;37.00;;;;;;5121734;27;19912;-56
2022/08/05 13:01:05;;;;;;;;;;;32.40;37.30;;;;;;5104779;27;19946;-56
2022/08/05 13:03:46;;;;;;;;;;;32.50;37.20;;;;;;5125345;27;20157;-59
2022/08/05 13:06:28;;;;;;;;;;;32.70;37.10;;;;;;5126030;27;20108;-56
2022/08/05 13:09:08;;;;;;;;;;;32.70;37.00;;;;;;5126872;27;19918;-55
2022/08/05 13:11:51;;;;;;;;;;;32.80;38.10;;;;;;5126898;27;19920;-57
2022/08/05 13:14:35;;;;;;;;;;;33.00;37.10;;;;;;5106435;27;20327;-56
2022/08/05 13:17:18;;;;;;;;;;;32.80;37.60;;;;;;5126805;27;20399;-58
2022/08/05 13:20:03;;;;;;;;;;;32.70;37.60;;;;;;5126886;27;20397;-56
2022/08/05 13:22:43;;;;;;;;;;;32.90;37.60;;;;;;5126973;27;19912;-57
2022/08/05 13:25:24;;;;;;;;;;;33.10;36.90;;;;;;5126843;27;20266;-55
2022/08/05 13:28:05;;;;;;;;;;;33.20;36.40;;;;;;5125526;27;20415;-56
2022/08/05 13:30:45;;;;;;;;;;;33.20;36.60;;;;;;5126948;27;19916;-58
2022/08/05 13:33:27;;;;;;;;;;;33.20;35.60;;;;;;5126754;27;19919;-58
2022/08/05 13:36:06;;;;;;;;;;;33.20;35.70;;;;;;5126678;27;19912;-56
2022/08/05 13:38:46;;;;;;;;;;;33.00;35.80;;;;;;5119348;27;19913;-57
2022/08/05 13:41:26;;;;;;;;;;;32.60;36.20;;;;;;5106393;27;20375;-56
2022/08/05 13:44:06;;;;;;;;;;;32.50;38.20;;;;;;5086523;28;20350;-56
2022/08/05 13:46:46;;;;;;;;;;;32.40;37.80;;;;;;5105959;27;19912;-59
2022/08/05 13:49:25;;;;;;;;;;;32.30;37.70;;;;;;5126814;27;20088;-57
2022/08/05 13:52:12;;;;;;;;;;;32.40;35.90;;;;;;5127106;27;19912;-58
2022/08/05 13:54:53;;;;;;;;;;;32.70;36.60;;;;;;5105004;27;20118;-57
2022/08/05 13:57:33;;;;;;;;;;;33.20;35.30;;;;;;5118892;27;20172;-56
2022/08/05 14:00:13;;;;;;;;;;;33.40;33.90;;;;;;5105696;27;19926;-56
2022/08/05 14:02:54;;;;;;;;;;;33.50;34.10;;;;;;5119823;27;19919;-59
2022/08/05 14:05:34;;;;;;;;;;;33.60;34.90;;;;;;5100443;27;19961;-55
2022/08/05 14:08:14;;;;;;;;;;;33.70;33.60;;;;;;5098638;27;19922;-58
2022/08/05 14:10:54;;;;;;;;;;;33.60;33.40;;;;;;5126327;27;20246;-55
2022/08/05 14:13:33;;;;;;;;;;;33.60;33.90;;;;;;5126525;27;19912;-59
2022/08/05 14:16:13;;;;;;;;;;;33.60;34.10;;;;;;5106611;27;19916;-54
2022/08/05 14:18:53;;;;;;;;;;;33.80;34.40;;;;;;5126953;27;19925;-57
2022/08/05 14:21:33;;;;;;;;;;;33.90;34.10;;;;;;5106202;27;19916;-56
2022/08/05 14:24:13;;;;;;;;;;;33.90;33.30;;;;;;5106182;27;20458;-58
2022/08/05 14:26:53;;;;;;;;;;;34.00;33.10;;;;;;5126728;27;20393;-57
2022/08/05 14:29:33;;;;;;;;;;;33.90;32.90;;;;;;5106551;27;19954;-58
2022/08/05 14:32:12;;;;;;;;;;;33.80;33.50;;;;;;5126914;27;19916;-56
2022/08/05 14:34:52;;;;;;;;;;;34.00;33.40;;;;;;5127047;27;19925;-56
2022/08/05 14:37:32;;;;;;;;;;;34.00;33.30;;;;;;5106523;27;20307;-56
2022/08/05 14:40:12;;;;;;;;;;;34.00;33.10;;;;;;5127296;27;20300;-56
2022/08/05 14:42:53;;;;;;;;;;;34.00;32.50;;;;;;5127321;27;19911;-61
2022/08/05 14:45:33;;;;;;;;;;;33.90;32.50;;;;;;5127279;27;19918;-60
2022/08/05 14:48:13;;;;;;;;;;;33.80;31.40;;;;;;5124209;27;20324;-55
2022/08/05 14:50:53;;;;;;;;;;;33.80;32.50;;;;;;5125757;27;20384;-56
2022/08/05 14:53:33;;;;;;;;;;;34.00;31.00;;;;;;5085754;28;19913;-56
2022/08/05 14:56:12;;;;;;;;;;;34.20;33.50;;;;;;5123931;27;19912;-57
2022/08/05 14:58:52;;;;;;;;;;;34.30;32.00;;;;;;5115586;27;19919;-57
2022/08/05 15:01:32;;;;;;;;;;;34.40;32.40;;;;;;5096011;27;20020;-58
2022/08/05 15:04:12;;;;;;;;;;;34.50;30.70;;;;;;5122852;27;19993;-58
2022/08/05 15:06:52;;;;;;;;;;;34.40;30.60;;;;;;5116654;27;20411;-56
2022/08/05 15:09:32;;;;;;;;;;;34.40;33.30;;;;;;5126051;27;19918;-57
2022/08/05 15:12:11;;;;;;;;;;;34.50;31.70;;;;;;5123079;27;19924;-57
2022/08/05 15:14:51;;;;;;;;;;;34.50;30.60;;;;;;5103691;27;19966;-56
2022/08/05 15:17:31;;;;;;;;;;;34.30;30.40;;;;;;5110382;27;19923;-57
2022/08/05 15:20:12;;;;;;;;;;;33.90;30.20;;;;;;5084587;27;19917;-57
2022/08/05 15:22:52;;;;;;;;;;;33.80;30.40;;;;;;5123822;27;19923;-56
2022/08/05 15:25:32;;;;;;;;;;;33.90;30.90;;;;;;5093027;27;20335;-57
2022/08/05 15:28:12;;;;;;;;;;;34.00;30.90;;;;;;5113786;27;20329;-56
2022/08/05 15:30:53;;;;;;;;;;;34.20;31.20;;;;;;5124643;27;19925;-58
2022/08/05 15:33:35;;;;;;;;;;;34.00;31.20;;;;;;5102278;27;19919;-58
2022/08/05 15:36:15;;;;;;;;;;;33.80;30.80;;;;;;5104447;27;19927;-57
2022/08/05 15:38:54;;;;;;;;;;;33.50;31.60;;;;;;5116096;27;19912;-56
2022/08/05 15:41:34;;;;;;;;;;;33.40;31.60;;;;;;5119476;27;19929;-56